createdAt,value
2017-01-30T00:00:30.157Z,0
2017-01-30T00:01:35.358Z,0
2017-01-30T00:02:40.564Z,0
2017-01-30T00:03:45.744Z,0
2017-01-30T00:04:50.926Z,0
2017-01-30T00:05:57.096Z,0
2017-01-30T00:07:02.299Z,0
2017-01-30T00:08:08.505Z,0
2017-01-30T00:09:14.672Z,0
2017-01-30T00:10:20.843Z,0
2017-01-30T00:11:26.131Z,0
2017-01-30T00:12:32.299Z,0
2017-01-30T00:13:36.511Z,0
2017-01-30T00:14:41.686Z,0
2017-01-30T00:15:45.918Z,0
2017-01-30T00:16:52.104Z,0
2017-01-30T00:17:58.261Z,0
2017-01-30T00:19:04.441Z,0
2017-01-30T00:20:09.628Z,0
2017-01-30T00:21:14.935Z,0
2017-01-30T00:22:20.139Z,0
2017-01-30T00:24:31.520Z,0
2017-01-30T00:25:36.727Z,0
2017-01-30T00:26:41.883Z,0
2017-01-30T00:27:47.110Z,0
2017-01-30T00:28:52.266Z,0
2017-01-30T00:29:58.433Z,0
2017-01-30T00:31:04.598Z,0
2017-01-30T00:32:07.829Z,0
2017-01-30T00:33:13.060Z,0
2017-01-30T00:34:19.233Z,0
2017-01-30T00:35:24.441Z,0
2017-01-30T00:36:29.634Z,0
2017-01-30T00:37:33.874Z,0
2017-01-30T00:38:39.043Z,0
2017-01-30T00:39:45.214Z,0
2017-01-30T00:40:50.447Z,0
2017-01-30T00:41:55.699Z,0
2017-01-30T00:43:00.028Z,0
2017-01-30T00:44:05.255Z,0
2017-01-30T00:45:10.420Z,0
2017-01-30T00:46:14.653Z,0
2017-01-30T00:47:19.858Z,0
2017-01-30T00:48:25.052Z,0
2017-01-30T00:49:29.263Z,0
2017-01-30T00:50:33.461Z,0
2017-01-30T00:51:39.626Z,0
2017-01-30T00:52:45.795Z,0
2017-01-30T00:53:51.029Z,0
2017-01-30T00:54:56.195Z,0
2017-01-30T00:56:01.395Z,0
2017-01-30T00:57:07.553Z,0
2017-01-30T00:58:12.728Z,0
2017-01-30T00:59:18.896Z,0
2017-01-30T01:00:25.057Z,0
2017-01-30T01:01:31.244Z,0
2017-01-30T01:02:37.463Z,0
2017-01-30T01:03:43.614Z,0
2017-01-30T01:04:48.815Z,0
2017-01-30T01:05:54.979Z,0
2017-01-30T01:07:01.181Z,0
2017-01-30T01:08:07.405Z,0
2017-01-30T01:09:13.574Z,0
2017-01-30T01:10:19.747Z,0
2017-01-30T01:11:24.934Z,0
2017-01-30T01:12:29.135Z,0
2017-01-30T01:13:35.305Z,0
2017-01-30T01:14:39.585Z,0
2017-01-30T01:15:44.759Z,0
2017-01-30T01:16:48.051Z,0
2017-01-30T01:17:52.300Z,0
2017-01-30T01:18:58.465Z,0
2017-01-30T01:20:02.699Z,0
2017-01-30T01:21:08.835Z,0
2017-01-30T01:22:13.076Z,0
2017-01-30T01:23:16.337Z,0
2017-01-30T01:24:21.537Z,0
2017-01-30T01:25:26.741Z,0
2017-01-30T01:26:31.945Z,0
2017-01-30T01:27:37.174Z,0
2017-01-30T01:28:42.365Z,0
2017-01-30T01:29:47.575Z,0
2017-01-30T01:30:52.743Z,0
2017-01-30T01:31:57.921Z,0
2017-01-30T01:33:03.130Z,0
2017-01-30T01:34:07.408Z,0
2017-01-30T01:35:13.540Z,0
2017-01-30T01:36:18.837Z,0
2017-01-30T01:37:25.006Z,0
2017-01-30T01:38:31.225Z,0
2017-01-30T01:39:36.426Z,0
2017-01-30T01:40:41.684Z,0
2017-01-30T01:41:45.959Z,0
2017-01-30T01:42:51.128Z,0
2017-01-30T01:43:57.289Z,0
2017-01-30T01:45:02.487Z,0
2017-01-30T01:46:08.663Z,0
2017-01-30T01:47:14.833Z,0
2017-01-30T01:48:20.011Z,0
2017-01-30T01:49:25.187Z,0
2017-01-30T01:50:31.346Z,0
2017-01-30T01:51:37.519Z,0
2017-01-30T01:52:43.681Z,0
2017-01-30T01:53:49.897Z,0
2017-01-30T01:54:56.066Z,0
2017-01-30T01:56:02.238Z,0
2017-01-30T01:57:06.463Z,0
2017-01-30T01:58:12.636Z,0
2017-01-30T01:59:15.907Z,0
2017-01-30T02:01:26.285Z,0
2017-01-30T02:02:31.488Z,0
2017-01-30T02:03:37.657Z,0
2017-01-30T02:04:42.867Z,0
2017-01-30T02:05:48.067Z,0
2017-01-30T02:06:53.313Z,0
2017-01-30T02:07:59.446Z,0
2017-01-30T02:09:05.621Z,0
2017-01-30T02:10:11.770Z,0
2017-01-30T02:11:16.032Z,0
2017-01-30T02:12:22.180Z,0
2017-01-30T02:13:27.435Z,0
2017-01-30T02:14:33.580Z,0
2017-01-30T02:15:39.747Z,0
2017-01-30T02:16:44.946Z,0
2017-01-30T02:17:48.208Z,0
2017-01-30T02:18:53.408Z,0
2017-01-30T02:19:56.666Z,0
2017-01-30T02:21:01.868Z,0
2017-01-30T02:22:08.033Z,0
2017-01-30T02:23:13.234Z,0
2017-01-30T02:24:18.469Z,0
2017-01-30T02:25:23.672Z,0
2017-01-30T02:26:27.893Z,0
2017-01-30T02:27:34.060Z,0
2017-01-30T02:28:40.219Z,0
2017-01-30T02:29:45.392Z,0
2017-01-30T02:30:49.629Z,0
2017-01-30T02:31:55.905Z,0
2017-01-30T02:33:01.095Z,0
2017-01-30T02:34:06.285Z,0
2017-01-30T02:35:12.527Z,0
2017-01-30T02:36:18.683Z,0
2017-01-30T02:37:23.882Z,0
2017-01-30T02:38:30.047Z,0
2017-01-30T02:39:35.267Z,0
2017-01-30T02:40:40.665Z,0
2017-01-30T02:41:45.966Z,0
2017-01-30T02:42:52.135Z,0
2017-01-30T02:43:57.393Z,0
2017-01-30T02:45:02.588Z,0
2017-01-30T02:46:07.757Z,0
2017-01-30T02:47:12.951Z,0
2017-01-30T02:48:19.113Z,0
2017-01-30T02:49:24.303Z,0
2017-01-30T02:50:30.633Z,0
2017-01-30T02:51:35.827Z,0
2017-01-30T02:52:39.127Z,0
2017-01-30T02:53:45.223Z,0
2017-01-30T02:54:49.441Z,0
2017-01-30T02:55:54.642Z,0
2017-01-30T02:57:00.834Z,0
2017-01-30T02:58:05.072Z,0
2017-01-30T02:59:11.244Z,0
2017-01-30T03:00:17.405Z,0
2017-01-30T03:01:22.574Z,0
2017-01-30T03:02:28.739Z,0
2017-01-30T03:03:33.942Z,0
2017-01-30T03:04:40.105Z,0
2017-01-30T03:05:46.289Z,0
2017-01-30T03:06:50.517Z,0
2017-01-30T03:07:54.852Z,0
2017-01-30T03:09:01.101Z,0
2017-01-30T03:10:07.263Z,0
2017-01-30T03:11:12.602Z,0
2017-01-30T03:12:18.726Z,0
2017-01-30T03:13:23.924Z,0
2017-01-30T03:14:29.098Z,0
2017-01-30T03:15:33.323Z,0
2017-01-30T03:16:39.486Z,0
2017-01-30T03:17:44.784Z,0
2017-01-30T03:18:49.982Z,0
2017-01-30T03:19:54.190Z,0
2017-01-30T03:20:58.419Z,0
2017-01-30T03:22:04.582Z,0
2017-01-30T03:23:06.843Z,0
2017-01-30T03:24:10.084Z,0
2017-01-30T03:25:15.285Z,0
2017-01-30T03:26:19.512Z,0
2017-01-30T03:27:23.778Z,0
2017-01-30T03:28:28.953Z,0
2017-01-30T03:29:32.184Z,0
2017-01-30T03:30:36.542Z,0
2017-01-30T03:31:42.731Z,0
2017-01-30T03:32:48.929Z,0
2017-01-30T03:33:55.086Z,0
2017-01-30T03:35:00.308Z,0
2017-01-30T03:36:05.505Z,0
2017-01-30T03:37:10.702Z,0
2017-01-30T03:38:16.872Z,0
2017-01-30T03:39:23.051Z,0
2017-01-30T03:40:28.244Z,0
2017-01-30T03:41:32.448Z,0
2017-01-30T03:42:38.611Z,0
2017-01-30T03:43:44.830Z,0
2017-01-30T03:44:49.960Z,0
2017-01-30T03:45:56.122Z,0
2017-01-30T03:47:01.314Z,0
2017-01-30T03:48:07.488Z,0
2017-01-30T03:49:13.644Z,0
2017-01-30T03:50:19.824Z,0
2017-01-30T03:51:25.031Z,0
2017-01-30T03:52:30.235Z,0
2017-01-30T03:53:36.399Z,0
2017-01-30T03:54:42.592Z,0
2017-01-30T03:55:47.773Z,0
2017-01-30T03:56:52.965Z,0
2017-01-30T03:57:59.142Z,0
2017-01-30T03:59:04.338Z,0
2017-01-30T04:00:08.562Z,0
2017-01-30T04:01:14.724Z,0
2017-01-30T04:02:20.995Z,0
2017-01-30T04:03:26.224Z,0
2017-01-30T04:04:31.420Z,0
2017-01-30T04:05:36.624Z,0
2017-01-30T04:06:40.859Z,0
2017-01-30T04:07:46.037Z,0
2017-01-30T04:08:52.201Z,0
2017-01-30T04:09:56.530Z,0
2017-01-30T04:11:01.733Z,0
2017-01-30T04:12:05.999Z,0
2017-01-30T04:13:11.232Z,0
2017-01-30T04:14:16.366Z,0
2017-01-30T04:15:21.571Z,0
2017-01-30T04:16:27.737Z,0
2017-01-30T04:17:33.909Z,0
2017-01-30T04:18:40.085Z,0
2017-01-30T04:19:45.290Z,0
2017-01-30T04:20:50.467Z,0
2017-01-30T04:21:55.663Z,0
2017-01-30T04:23:01.826Z,0
2017-01-30T04:24:07.045Z,0
2017-01-30T04:25:12.266Z,0
2017-01-30T04:26:16.487Z,0
2017-01-30T04:27:22.656Z,0
2017-01-30T04:28:28.826Z,0
2017-01-30T04:29:32.112Z,0
2017-01-30T04:30:38.278Z,0
2017-01-30T04:31:42.509Z,0
2017-01-30T04:32:48.675Z,0
2017-01-30T04:33:54.838Z,0
2017-01-30T04:35:01.009Z,0
2017-01-30T04:36:06.199Z,0
2017-01-30T04:37:11.429Z,0
2017-01-30T04:38:16.603Z,0
2017-01-30T04:39:21.983Z,0
2017-01-30T04:41:33.340Z,0
2017-01-30T04:42:37.590Z,0
2017-01-30T04:43:42.779Z,0
2017-01-30T04:44:47.948Z,0
2017-01-30T04:45:53.152Z,0
2017-01-30T04:46:58.357Z,0
2017-01-30T04:48:03.574Z,0
2017-01-30T04:49:08.774Z,0
2017-01-30T04:50:13.962Z,0
2017-01-30T04:51:20.125Z,0
2017-01-30T04:52:25.293Z,0
2017-01-30T04:53:30.486Z,0
2017-01-30T04:54:35.680Z,0
2017-01-30T04:55:41.879Z,0
2017-01-30T04:56:47.068Z,0
2017-01-30T04:57:52.267Z,0
2017-01-30T04:58:57.520Z,0
2017-01-30T05:00:03.682Z,0
2017-01-30T05:01:08.847Z,0
2017-01-30T05:02:14.087Z,0
2017-01-30T05:03:20.258Z,0
2017-01-30T05:04:25.495Z,0
2017-01-30T05:05:31.661Z,0
2017-01-30T05:06:37.823Z,0
2017-01-30T05:07:43.988Z,0
2017-01-30T05:08:48.215Z,0
2017-01-30T05:09:51.448Z,0
2017-01-30T05:10:56.646Z,0
2017-01-30T05:12:02.817Z,0
2017-01-30T05:13:08.000Z,0
2017-01-30T05:14:14.174Z,0
2017-01-30T05:15:18.409Z,0
2017-01-30T05:16:23.622Z,0
2017-01-30T05:17:29.796Z,0
2017-01-30T05:18:35.969Z,0
2017-01-30T05:19:42.152Z,0
2017-01-30T05:20:47.351Z,0
2017-01-30T05:21:52.520Z,0
2017-01-30T05:22:58.760Z,0
2017-01-30T05:24:04.916Z,0
2017-01-30T05:25:07.181Z,0
2017-01-30T05:26:13.353Z,0
2017-01-30T05:27:16.590Z,0
2017-01-30T05:28:21.785Z,0
2017-01-30T05:29:26.155Z,0
2017-01-30T05:30:30.383Z,0
2017-01-30T05:31:34.618Z,0
2017-01-30T05:32:39.821Z,0
2017-01-30T05:33:45.009Z,0
2017-01-30T05:34:51.221Z,0
2017-01-30T05:35:57.400Z,0
2017-01-30T05:37:02.596Z,0
2017-01-30T05:38:08.764Z,0
2017-01-30T05:39:12.995Z,0
2017-01-30T05:40:18.196Z,0
2017-01-30T05:41:22.480Z,0
2017-01-30T05:42:28.648Z,0
2017-01-30T05:43:33.868Z,0
2017-01-30T05:44:39.048Z,0
2017-01-30T05:45:45.212Z,0
2017-01-30T05:46:51.440Z,0
2017-01-30T05:47:57.607Z,0
2017-01-30T05:49:03.787Z,0
2017-01-30T05:50:08.987Z,0
2017-01-30T05:51:15.148Z,0
2017-01-30T05:52:21.310Z,0
2017-01-30T05:53:25.613Z,0
2017-01-30T05:54:31.778Z,0
2017-01-30T05:55:38.053Z,0
2017-01-30T05:56:44.225Z,0
2017-01-30T05:57:49.389Z,0
2017-01-30T05:58:54.569Z,0
2017-01-30T06:00:00.731Z,0
2017-01-30T06:01:05.943Z,0
2017-01-30T06:02:11.238Z,0
2017-01-30T06:03:16.411Z,0
2017-01-30T06:04:20.608Z,0
2017-01-30T06:05:25.934Z,0
2017-01-30T06:06:32.056Z,0
2017-01-30T06:07:38.217Z,0
2017-01-30T06:08:43.424Z,0
2017-01-30T06:09:48.593Z,0
2017-01-30T06:10:54.767Z,0
2017-01-30T06:12:00.024Z,0
2017-01-30T06:13:05.194Z,0
2017-01-30T06:14:10.392Z,0
2017-01-30T06:15:16.685Z,0
2017-01-30T06:16:21.880Z,0
2017-01-30T06:17:28.055Z,0
2017-01-30T06:18:32.257Z,0
2017-01-30T06:19:36.494Z,0
2017-01-30T06:20:42.664Z,0
2017-01-30T06:21:46.910Z,0
2017-01-30T06:22:52.111Z,0
2017-01-30T06:23:57.307Z,0
2017-01-30T06:25:03.484Z,0
2017-01-30T06:26:07.691Z,0
2017-01-30T06:27:12.852Z,0
2017-01-30T06:28:18.139Z,0
2017-01-30T06:29:23.299Z,0
2017-01-30T06:30:28.496Z,0
2017-01-30T06:31:33.736Z,0
2017-01-30T06:32:38.874Z,0
2017-01-30T06:33:45.074Z,0
2017-01-30T06:34:51.252Z,0
2017-01-30T06:35:56.443Z,0
2017-01-30T06:36:59.697Z,0
2017-01-30T06:38:05.914Z,0
2017-01-30T06:39:10.102Z,0
2017-01-30T06:40:16.267Z,0
2017-01-30T06:41:20.537Z,0
2017-01-30T06:42:24.777Z,0
2017-01-30T06:43:30.940Z,0
2017-01-30T06:44:35.169Z,0
2017-01-30T06:45:41.389Z,0
2017-01-30T06:46:46.586Z,0
2017-01-30T06:47:51.897Z,0
2017-01-30T06:48:58.075Z,0
2017-01-30T06:50:04.238Z,4
2017-01-30T06:51:10.407Z,4
2017-01-30T06:52:13.687Z,4
2017-01-30T06:53:19.886Z,4
2017-01-30T06:54:25.059Z,4
2017-01-30T06:55:31.218Z,8
2017-01-30T06:56:37.476Z,4
2017-01-30T06:57:42.680Z,8
2017-01-30T06:58:48.839Z,12
2017-01-30T06:59:55.015Z,12
2017-01-30T07:01:00.197Z,12
2017-01-30T07:02:05.375Z,12
2017-01-30T07:03:11.529Z,16
2017-01-30T07:04:17.691Z,20
2017-01-30T07:05:23.869Z,20
2017-01-30T07:06:30.045Z,28
2017-01-30T07:07:35.212Z,28
2017-01-30T07:08:41.387Z,36
2017-01-30T07:09:47.551Z,32
2017-01-30T07:10:52.745Z,36
2017-01-30T07:11:58.909Z,36
2017-01-30T07:13:04.115Z,40
2017-01-30T07:14:09.333Z,40
2017-01-30T07:15:15.503Z,52
2017-01-30T07:16:21.673Z,48
2017-01-30T07:17:27.854Z,60
2017-01-30T07:18:33.075Z,68
2017-01-30T07:19:38.273Z,76
2017-01-30T07:20:43.495Z,84
2017-01-30T07:21:47.712Z,92
2017-01-30T07:22:53.879Z,100
2017-01-30T07:23:59.075Z,124
2017-01-30T07:25:05.256Z,164
2017-01-30T07:26:11.479Z,184
2017-01-30T07:27:16.706Z,180
2017-01-30T07:28:22.867Z,136
2017-01-30T07:29:29.132Z,172
2017-01-30T07:30:35.302Z,200
2017-01-30T07:31:40.499Z,196
2017-01-30T07:32:44.706Z,232
2017-01-30T07:33:49.951Z,224
2017-01-30T07:34:55.147Z,212
2017-01-30T07:36:01.327Z,224
2017-01-30T07:37:06.579Z,276
2017-01-30T07:38:12.706Z,288
2017-01-30T07:39:16.903Z,256
2017-01-30T07:40:21.137Z,244
2017-01-30T07:41:24.405Z,220
2017-01-30T07:42:30.571Z,192
2017-01-30T07:43:36.731Z,184
2017-01-30T07:44:41.902Z,156
2017-01-30T07:45:48.067Z,152
2017-01-30T07:46:54.293Z,164
2017-01-30T07:47:57.494Z,172
2017-01-30T07:49:01.730Z,228
2017-01-30T07:50:06.924Z,228
2017-01-30T07:51:12.127Z,264
2017-01-30T07:52:17.326Z,228
2017-01-30T07:53:22.523Z,244
2017-01-30T07:54:28.729Z,268
2017-01-30T07:55:34.857Z,300
2017-01-30T07:56:40.087Z,296
2017-01-30T07:57:46.261Z,376
2017-01-30T07:58:51.460Z,364
2017-01-30T07:59:56.671Z,336
2017-01-30T08:01:01.868Z,360
2017-01-30T08:02:07.056Z,344
2017-01-30T08:03:11.289Z,368
2017-01-30T08:04:15.555Z,376
2017-01-30T08:05:20.728Z,332
2017-01-30T08:06:26.126Z,356
2017-01-30T08:07:30.387Z,352
2017-01-30T08:08:34.599Z,372
2017-01-30T08:09:38.812Z,472
2017-01-30T08:10:44.088Z,512
2017-01-30T08:11:49.312Z,388
2017-01-30T08:12:55.488Z,344
2017-01-30T08:13:59.718Z,468
2017-01-30T08:15:05.924Z,476
2017-01-30T08:16:12.053Z,512
2017-01-30T08:17:16.303Z,508
2017-01-30T08:18:20.538Z,536
2017-01-30T08:19:26.729Z,600
2017-01-30T08:20:30.964Z,532
2017-01-30T08:21:36.193Z,572
2017-01-30T08:22:40.363Z,648
2017-01-30T08:23:45.603Z,868
2017-01-30T08:24:51.865Z,800
2017-01-30T08:25:57.979Z,636
2017-01-30T08:27:04.258Z,856
2017-01-30T08:28:09.511Z,676
2017-01-30T08:29:14.682Z,540
2017-01-30T08:30:20.867Z,520
2017-01-30T08:31:26.083Z,464
2017-01-30T08:32:32.258Z,440
2017-01-30T08:33:37.491Z,464
2017-01-30T08:34:42.672Z,468
2017-01-30T08:35:47.842Z,508
2017-01-30T08:36:53.011Z,496
2017-01-30T08:37:59.182Z,476
2017-01-30T08:39:05.395Z,468
2017-01-30T08:40:10.590Z,472
2017-01-30T08:41:16.003Z,480
2017-01-30T08:42:20.245Z,500
2017-01-30T08:43:24.465Z,516
2017-01-30T08:44:29.658Z,512
2017-01-30T08:45:33.963Z,592
2017-01-30T08:46:40.119Z,624
2017-01-30T08:47:45.291Z,668
2017-01-30T08:49:56.664Z,908
2017-01-30T08:51:01.846Z,952
2017-01-30T08:52:07.088Z,1068
2017-01-30T08:53:10.349Z,1388
2017-01-30T08:54:14.549Z,1452
2017-01-30T08:55:16.815Z,1424
2017-01-30T08:56:23.047Z,1388
2017-01-30T08:57:28.254Z,1316
2017-01-30T08:58:34.472Z,1708
2017-01-30T08:59:39.615Z,2100
2017-01-30T09:00:45.793Z,2180
2017-01-30T09:01:51.964Z,2344
2017-01-30T09:02:57.283Z,2352
2017-01-30T09:04:03.424Z,2208
2017-01-30T09:05:08.619Z,2376
2017-01-30T09:06:14.790Z,1960
2017-01-30T09:07:20.960Z,1692
2017-01-30T09:08:27.140Z,1840
2017-01-30T09:09:32.339Z,1900
2017-01-30T09:10:37.535Z,1996
2017-01-30T09:11:42.710Z,1728
2017-01-30T09:12:47.896Z,2072
2017-01-30T09:13:54.066Z,2120
2017-01-30T09:14:59.231Z,2280
2017-01-30T09:16:02.511Z,2228
2017-01-30T09:17:07.681Z,2016
2017-01-30T09:18:13.851Z,2128
2017-01-30T09:19:19.045Z,2156
2017-01-30T09:20:25.227Z,2540
2017-01-30T09:21:30.424Z,3024
2017-01-30T09:22:36.591Z,3208
2017-01-30T09:23:42.777Z,2800
2017-01-30T09:24:48.052Z,2416
2017-01-30T09:25:53.259Z,2300
2017-01-30T09:26:59.423Z,2180
2017-01-30T09:28:04.622Z,2424
2017-01-30T09:29:09.819Z,2168
2017-01-30T09:30:15.018Z,2064
2017-01-30T09:31:20.200Z,2372
2017-01-30T09:32:26.365Z,2428
2017-01-30T09:33:31.606Z,2556
2017-01-30T09:34:36.802Z,2852
2017-01-30T09:35:41.994Z,2988
2017-01-30T09:36:47.187Z,3084
2017-01-30T09:37:53.359Z,2420
2017-01-30T09:38:57.600Z,2424
2017-01-30T09:40:02.073Z,2496
2017-01-30T09:41:06.267Z,2224
2017-01-30T09:42:10.515Z,2508
2017-01-30T09:43:16.690Z,2368
2017-01-30T09:45:28.025Z,2624
2017-01-30T09:46:32.272Z,2588
2017-01-30T09:47:37.475Z,3120
2017-01-30T09:48:41.681Z,2336
2017-01-30T09:49:46.879Z,2484
2017-01-30T09:50:53.049Z,2344
2017-01-30T09:51:58.280Z,2764
2017-01-30T09:53:04.439Z,2504
2017-01-30T09:54:10.610Z,2448
2017-01-30T09:55:15.802Z,2500
2017-01-30T09:56:20.983Z,2496
2017-01-30T09:57:26.301Z,2292
2017-01-30T09:58:30.437Z,2688
2017-01-30T09:59:35.634Z,2816
2017-01-30T10:00:41.798Z,2696
2017-01-30T10:01:47.950Z,2664
2017-01-30T10:02:54.104Z,3200
2017-01-30T10:04:00.258Z,2992
2017-01-30T10:05:04.457Z,2816
2017-01-30T10:06:08.668Z,2980
2017-01-30T10:07:14.816Z,2712
2017-01-30T10:08:20.009Z,2680
2017-01-30T10:09:26.350Z,2792
2017-01-30T10:10:30.438Z,3420
2017-01-30T10:11:34.665Z,3120
2017-01-30T10:12:39.904Z,3360
2017-01-30T10:13:46.055Z,3760
2017-01-30T10:14:51.244Z,3252
2017-01-30T10:15:55.434Z,3196
2017-01-30T10:17:00.612Z,3308
2017-01-30T10:18:03.891Z,3348
2017-01-30T10:19:10.062Z,3500
2017-01-30T10:20:16.169Z,3036
2017-01-30T10:21:22.344Z,3076
2017-01-30T10:22:27.529Z,2712
2017-01-30T10:23:32.715Z,2984
2017-01-30T10:24:38.868Z,2608
2017-01-30T10:25:45.090Z,2760
2017-01-30T10:26:51.240Z,2664
2017-01-30T10:27:57.390Z,2288
2017-01-30T10:29:02.551Z,2264
2017-01-30T10:30:08.706Z,2292
2017-01-30T10:31:13.873Z,2304
2017-01-30T10:32:19.058Z,2424
2017-01-30T10:33:25.208Z,2308
2017-01-30T10:34:30.537Z,2252
2017-01-30T10:35:35.726Z,2192
2017-01-30T10:36:38.960Z,2368
2017-01-30T10:37:44.178Z,2472
2017-01-30T10:38:50.298Z,2580
2017-01-30T10:39:55.448Z,2436
2017-01-30T10:41:01.620Z,2828
2017-01-30T10:42:07.772Z,3284
2017-01-30T10:43:13.926Z,3692
2017-01-30T10:44:19.112Z,4552
2017-01-30T10:45:24.311Z,3656
2017-01-30T10:46:29.466Z,3856
2017-01-30T10:47:35.616Z,3736
2017-01-30T10:48:41.765Z,3380
2017-01-30T10:49:45.955Z,3052
2017-01-30T10:50:52.150Z,2568
2017-01-30T10:51:57.294Z,2172
2017-01-30T10:53:03.423Z,2036
2017-01-30T10:54:09.572Z,1764
2017-01-30T10:55:12.814Z,1812
2017-01-30T10:56:19.210Z,2396
2017-01-30T10:57:23.399Z,2444
2017-01-30T10:58:28.580Z,2332
2017-01-30T10:59:33.773Z,2292
2017-01-30T11:00:38.951Z,2492
2017-01-30T11:01:45.167Z,3096
2017-01-30T11:02:50.325Z,3080
2017-01-30T11:03:54.627Z,3632
2017-01-30T11:05:00.799Z,3148
2017-01-30T11:06:05.974Z,3664
2017-01-30T11:07:11.221Z,2816
2017-01-30T11:08:16.403Z,3164
2017-01-30T11:09:20.625Z,4200
2017-01-30T11:10:25.907Z,3412
2017-01-30T11:11:31.103Z,4104
2017-01-30T11:12:37.267Z,3616
2017-01-30T11:13:42.492Z,4200
2017-01-30T11:14:46.719Z,4380
2017-01-30T11:15:51.923Z,4480
2017-01-30T11:16:57.123Z,4140
2017-01-30T11:18:03.304Z,3516
2017-01-30T11:19:09.467Z,2672
2017-01-30T11:20:15.635Z,2660
2017-01-30T11:21:19.843Z,2184
2017-01-30T11:22:24.050Z,2048
2017-01-30T11:23:28.365Z,1864
2017-01-30T11:24:31.600Z,1732
2017-01-30T11:25:36.802Z,1832
2017-01-30T11:26:43.073Z,1452
2017-01-30T11:27:49.245Z,1320
2017-01-30T11:28:54.498Z,1440
2017-01-30T11:29:59.636Z,1628
2017-01-30T11:31:04.798Z,1580
2017-01-30T11:32:10.065Z,1964
2017-01-30T11:33:15.230Z,1912
2017-01-30T11:34:21.399Z,2148
2017-01-30T11:35:26.594Z,2248
2017-01-30T11:37:36.948Z,2636
2017-01-30T11:38:40.240Z,2804
2017-01-30T11:39:45.382Z,2768
2017-01-30T11:40:50.587Z,3456
2017-01-30T11:41:55.791Z,3252
2017-01-30T11:43:01.994Z,2860
2017-01-30T11:44:08.137Z,2876
2017-01-30T11:45:12.345Z,2956
2017-01-30T11:46:16.588Z,2952
2017-01-30T11:47:20.842Z,3132
2017-01-30T11:48:27.074Z,3052
2017-01-30T11:49:31.307Z,3980
2017-01-30T11:50:34.563Z,4080
2017-01-30T11:51:38.808Z,4288
2017-01-30T11:52:43.076Z,4132
2017-01-30T11:53:49.215Z,3804
2017-01-30T11:54:55.439Z,3456
2017-01-30T11:56:00.643Z,3436
2017-01-30T11:57:06.813Z,3240
2017-01-30T11:58:12.984Z,3468
2017-01-30T11:59:18.156Z,3824
2017-01-30T12:00:23.329Z,4168
2017-01-30T12:01:27.572Z,3908
2017-01-30T12:02:31.778Z,4444
2017-01-30T12:03:37.948Z,4420
2017-01-30T12:04:44.124Z,4436
2017-01-30T12:05:50.303Z,3760
2017-01-30T12:06:54.526Z,4244
2017-01-30T12:08:00.698Z,4060
2017-01-30T12:09:06.866Z,3296
2017-01-30T12:10:12.073Z,3008
2017-01-30T12:11:18.239Z,2992
2017-01-30T12:12:24.605Z,3496
2017-01-30T12:13:29.803Z,3812
2017-01-30T12:14:35.982Z,3972
2017-01-30T12:15:41.197Z,3796
2017-01-30T12:16:46.442Z,4064
2017-01-30T12:17:51.643Z,4260
2017-01-30T12:18:54.891Z,3880
2017-01-30T12:20:00.160Z,3280
2017-01-30T12:21:04.450Z,3336
2017-01-30T12:22:07.721Z,3284
2017-01-30T12:23:10.963Z,2896
2017-01-30T12:24:17.354Z,2460
2017-01-30T12:25:23.516Z,1916
2017-01-30T12:26:29.773Z,1516
2017-01-30T12:27:34.970Z,1440
2017-01-30T12:28:39.240Z,1436
2017-01-30T12:29:43.508Z,1340
2017-01-30T12:30:48.706Z,1252
2017-01-30T12:31:53.912Z,1424
2017-01-30T12:33:00.129Z,1496
2017-01-30T12:34:05.264Z,1860
2017-01-30T12:35:11.436Z,2368
2017-01-30T12:36:16.743Z,2584
2017-01-30T12:37:20.037Z,2184
2017-01-30T12:38:25.202Z,2408
2017-01-30T12:39:30.421Z,2644
2017-01-30T12:40:36.626Z,2700
2017-01-30T12:41:40.827Z,2904
2017-01-30T12:42:44.066Z,2664
2017-01-30T12:43:49.255Z,2920
2017-01-30T12:44:55.430Z,2980
2017-01-30T12:46:00.676Z,4392
2017-01-30T12:47:06.847Z,3912
2017-01-30T12:48:12.017Z,3428
2017-01-30T12:49:17.196Z,3216
2017-01-30T12:50:23.366Z,2856
2017-01-30T12:51:28.602Z,2784
2017-01-30T12:52:34.821Z,2540
2017-01-30T12:53:39.030Z,2452
2017-01-30T12:54:44.213Z,2044
2017-01-30T12:55:48.447Z,2320
2017-01-30T12:56:53.638Z,2464
2017-01-30T12:57:59.812Z,3072
2017-01-30T12:59:04.077Z,2996
2017-01-30T13:00:10.315Z,3032
2017-01-30T13:01:13.563Z,4628
2017-01-30T13:02:17.823Z,3952
2017-01-30T13:03:23.007Z,3968
2017-01-30T13:04:29.235Z,3716
2017-01-30T13:05:34.432Z,3812
2017-01-30T13:06:38.649Z,3324
2017-01-30T13:07:42.874Z,2912
2017-01-30T13:08:49.042Z,2532
2017-01-30T13:09:54.212Z,2836
2017-01-30T13:10:58.448Z,2300
2017-01-30T13:12:01.723Z,2704
2017-01-30T13:13:04.961Z,2872
2017-01-30T13:14:09.165Z,2588
2017-01-30T13:15:15.378Z,2440
2017-01-30T13:16:21.509Z,2400
2017-01-30T13:17:26.694Z,2332
2017-01-30T13:18:30.935Z,2280
2017-01-30T13:19:37.102Z,2036
2017-01-30T13:20:43.280Z,2120
2017-01-30T13:21:47.484Z,1880
2017-01-30T13:22:52.655Z,1592
2017-01-30T13:23:58.830Z,1296
2017-01-30T13:25:05.003Z,1316
2017-01-30T13:26:11.161Z,1580
2017-01-30T13:27:16.363Z,1556
2017-01-30T13:28:22.538Z,1548
2017-01-30T13:29:27.748Z,1656
2017-01-30T13:30:33.942Z,1672
2017-01-30T13:31:39.113Z,1528
2017-01-30T13:32:43.449Z,1444
2017-01-30T13:33:48.710Z,1604
2017-01-30T13:34:54.934Z,1608
2017-01-30T13:36:01.109Z,1756
2017-01-30T13:37:07.282Z,1584
2017-01-30T13:38:13.448Z,1580
2017-01-30T13:40:23.849Z,1524
2017-01-30T13:41:30.038Z,1344
2017-01-30T13:42:33.284Z,1188
2017-01-30T13:43:39.450Z,976
2017-01-30T13:44:45.622Z,888
2017-01-30T13:45:51.830Z,952
2017-01-30T13:46:57.960Z,1036
2017-01-30T13:48:04.141Z,1356
2017-01-30T13:49:10.291Z,1356
2017-01-30T13:50:15.503Z,1412
2017-01-30T13:51:21.668Z,1460
2017-01-30T13:52:26.036Z,1436
2017-01-30T13:53:30.166Z,1388
2017-01-30T13:54:35.362Z,1244
2017-01-30T13:55:38.679Z,1184
2017-01-30T13:56:43.910Z,1156
2017-01-30T13:57:49.109Z,1080
2017-01-30T13:58:55.276Z,1040
2017-01-30T14:00:00.475Z,1044
2017-01-30T14:01:05.705Z,976
2017-01-30T14:02:11.866Z,1052
2017-01-30T14:03:16.108Z,928
2017-01-30T14:04:20.345Z,920
2017-01-30T14:05:25.537Z,996
2017-01-30T14:06:29.770Z,932
2017-01-30T14:07:35.910Z,892
2017-01-30T14:08:42.088Z,860
2017-01-30T14:09:48.244Z,896
2017-01-30T14:10:54.423Z,924
2017-01-30T14:11:59.640Z,844
2017-01-30T14:13:04.848Z,800
2017-01-30T14:14:11.025Z,1008
2017-01-30T14:15:15.304Z,1120
2017-01-30T14:16:20.538Z,956
2017-01-30T14:17:26.666Z,1100
2017-01-30T14:18:31.933Z,1216
2017-01-30T14:19:37.119Z,1488
2017-01-30T14:20:41.351Z,1400
2017-01-30T14:21:47.533Z,1288
2017-01-30T14:22:52.730Z,1468
2017-01-30T14:23:56.942Z,1344
2017-01-30T14:25:03.149Z,1168
2017-01-30T14:26:08.374Z,1232
2017-01-30T14:27:12.578Z,1140
2017-01-30T14:28:18.806Z,1164
2017-01-30T14:29:23.991Z,1156
2017-01-30T14:30:28.203Z,1092
2017-01-30T14:31:34.381Z,928
2017-01-30T14:32:39.561Z,1044
2017-01-30T14:33:44.761Z,1232
2017-01-30T14:34:50.953Z,1368
2017-01-30T14:35:56.115Z,1244
2017-01-30T14:37:00.381Z,1280
2017-01-30T14:38:05.536Z,1096
2017-01-30T14:39:11.707Z,1172
2017-01-30T14:40:16.873Z,1096
2017-01-30T14:41:23.041Z,1048
2017-01-30T14:42:27.255Z,976
2017-01-30T14:43:33.430Z,1064
2017-01-30T14:44:39.617Z,960
2017-01-30T14:45:45.757Z,992
2017-01-30T14:46:50.950Z,932
2017-01-30T14:47:56.159Z,940
2017-01-30T14:49:01.370Z,816
2017-01-30T14:50:07.542Z,932
2017-01-30T14:51:13.767Z,844
2017-01-30T14:52:19.941Z,792
2017-01-30T14:53:25.145Z,892
2017-01-30T14:54:30.295Z,828
2017-01-30T14:55:35.485Z,916
2017-01-30T14:56:40.796Z,696
2017-01-30T14:57:46.974Z,572
2017-01-30T14:58:52.208Z,608
2017-01-30T14:59:58.350Z,724
2017-01-30T15:01:03.525Z,712
2017-01-30T15:02:08.751Z,824
2017-01-30T15:03:14.903Z,800
2017-01-30T15:04:21.076Z,760
2017-01-30T15:05:27.238Z,720
2017-01-30T15:06:33.412Z,864
2017-01-30T15:07:37.659Z,828
2017-01-30T15:08:42.861Z,856
2017-01-30T15:09:49.032Z,828
2017-01-30T15:10:54.264Z,672
2017-01-30T15:12:00.402Z,704
2017-01-30T15:13:04.645Z,604
2017-01-30T15:14:10.812Z,516
2017-01-30T15:15:16.977Z,580
2017-01-30T15:16:22.230Z,552
2017-01-30T15:17:28.515Z,684
2017-01-30T15:18:32.743Z,640
2017-01-30T15:19:37.944Z,676
2017-01-30T15:20:44.111Z,808
2017-01-30T15:21:50.280Z,772
2017-01-30T15:22:56.450Z,784
2017-01-30T15:24:02.824Z,884
2017-01-30T15:25:08.988Z,772